You are listening to:
KCAE Gnd/Twr/App - Columbia, South Carolina, United States

KCAE 161456Z 28008KT 10SM FEW090 SCT250 24/09 A3027 RMK AO2 SLP249 T02390094 58001 $

If stream doesn't start automatically press the play button
If stream stops then reload player then press play